Time;durP1;ratioP1;P1;durP2;ratioP2;P2;SDS_P1;SDS_P2;PMS_P1;PMS_P2;Temp;Humidity;BMP_temperature;BMP_pressure;BME280_temperature;BME280_humidity;BME280_pressure;Samples;Min_cycle;Max_cycle;Signal;HPM_P1;HPM_P2
2023/05/04 00:00:55;;;;;;;11.10;5.50;;;;;;;5.90;100.00;97728.75;5040358;28;21693;-60
2023/05/04 00:03:22;;;;;;;11.38;5.60;;;;;;;5.72;100.00;97724.09;5032641;28;20478;-60
2023/05/04 00:05:49;;;;;;;8.45;5.07;;;;;;;5.67;100.00;97724.72;5037430;28;20048;-58
2023/05/04 00:08:15;;;;;;;12.15;5.55;;;;;;;5.69;100.00;97724.50;5037666;28;20041;-59
2023/05/04 00:10:42;;;;;;;8.70;4.82;;;;;;;5.68;100.00;97707.53;5041529;28;20040;-59
2023/05/04 00:13:08;;;;;;;10.32;4.80;;;;;;;5.68;100.00;97706.75;5037867;28;20456;-58
2023/05/04 00:15:35;;;;;;;12.70;5.93;;;;;;;5.68;100.00;97704.84;5035835;28;20041;-60
2023/05/04 00:18:01;;;;;;;8.45;5.07;;;;;;;5.60;100.00;97707.78;5035689;28;20717;-60
2023/05/04 00:20:28;;;;;;;9.68;5.47;;;;;;;5.32;100.00;97703.53;5033871;28;20136;-60
2023/05/04 00:22:54;;;;;;;10.55;5.10;;;;;;;5.41;100.00;97701.44;5037592;28;20077;-59
2023/05/04 00:25:21;;;;;;;9.23;5.05;;;;;;;5.53;100.00;97698.94;5032754;28;20116;-59
2023/05/04 00:27:47;;;;;;;8.90;4.80;;;;;;;5.41;100.00;97702.25;5032610;28;20527;-60
2023/05/04 00:30:14;;;;;;;9.38;6.13;;;;;;;5.31;100.00;97702.69;5034789;28;20447;-58
2023/05/04 00:32:40;;;;;;;10.77;5.60;;;;;;;5.46;100.00;97693.59;5034514;28;20045;-59
2023/05/04 00:35:07;;;;;;;8.30;5.22;;;;;;;5.41;100.00;97690.69;5030777;28;20049;-60
2023/05/04 00:37:34;;;;;;;9.73;5.10;;;;;;;5.31;100.00;97691.94;5033240;28;20038;-59
2023/05/04 00:40:01;;;;;;;8.82;4.90;;;;;;;5.25;100.00;97687.44;5035460;28;20173;-59
2023/05/04 00:42:28;;;;;;;8.90;5.20;;;;;;;5.17;100.00;97687.66;5041285;28;20124;-59
2023/05/04 00:44:54;;;;;;;11.25;5.55;;;;;;;5.03;100.00;97686.84;5034083;28;20048;-60
2023/05/04 00:47:21;;;;;;;8.82;5.15;;;;;;;4.92;100.00;97694.50;5038385;28;20053;-60
2023/05/04 00:49:50;;;;;;;11.90;5.75;;;;;;;5.03;100.00;97690.34;5032935;28;20049;-60
2023/05/04 00:52:19;;;;;;;7.88;4.95;;;;;;;5.09;100.00;97691.38;5033487;28;20073;-59
2023/05/04 00:54:46;;;;;;;10.63;5.63;;;;;;;5.19;100.00;97686.41;5037198;28;20048;-60
2023/05/04 00:57:14;;;;;;;8.45;4.95;;;;;;;5.26;100.00;97683.72;5042532;28;20041;-60
2023/05/04 00:59:41;;;;;;;9.60;5.00;;;;;;;5.26;100.00;97686.38;5030869;28;20044;-59
2023/05/04 01:02:08;;;;;;;10.70;5.40;;;;;;;5.20;100.00;97688.03;5038842;28;20083;-60
2023/05/04 01:04:34;;;;;;;10.93;5.50;;;;;;;5.32;100.00;97684.72;5028393;28;20688;-59
2023/05/04 01:07:13;;;;;;;10.40;5.45;;;;;;;5.21;100.00;97687.00;5044672;28;20044;-59
2023/05/04 01:10:08;;;;;;;8.65;5.32;;;;;;;5.06;100.00;97689.91;5033962;28;20420;-59
2023/05/04 01:12:36;;;;;;;8.80;5.28;;;;;;;5.14;100.00;97688.91;5034915;28;20079;-59
2023/05/04 01:15:04;;;;;;;7.53;4.45;;;;;;;5.02;100.00;97688.69;5031731;28;20128;-60
2023/05/04 01:17:31;;;;;;;10.43;5.50;;;;;;;4.94;100.00;97691.63;5033839;28;20038;-60
2023/05/04 01:19:57;;;;;;;13.43;5.03;;;;;;;4.92;100.00;97680.25;5033464;28;20049;-60
2023/05/04 01:22:24;;;;;;;9.80;5.18;;;;;;;4.96;100.00;97676.09;5035342;28;20092;-59
2023/05/04 01:24:53;;;;;;;10.02;5.30;;;;;;;4.87;100.00;97675.47;5032531;28;20037;-59
2023/05/04 01:27:30;;;;;;;11.00;5.32;;;;;;;4.81;100.00;97671.81;5038546;28;20051;-60
2023/05/04 01:30:19;;;;;;;9.05;5.05;;;;;;;4.90;100.00;97676.97;5035672;28;20052;-60
2023/05/04 01:32:47;;;;;;;9.35;5.00;;;;;;;4.85;100.00;97682.94;5038823;28;20131;-60
2023/05/04 01:35:15;;;;;;;10.25;5.32;;;;;;;4.85;100.00;97682.09;5036009;28;20045;-59
2023/05/04 01:37:41;;;;;;;11.57;5.25;;;;;;;4.84;100.00;97685.81;5033019;28;20049;-60
2023/05/04 01:40:08;;;;;;;9.45;5.63;;;;;;;4.81;100.00;97687.91;5038108;28;20052;-60
2023/05/04 01:42:35;;;;;;;10.10;5.50;;;;;;;4.85;100.00;97685.63;5018624;28;20083;-60
2023/05/04 01:45:03;;;;;;;10.55;5.25;;;;;;;4.78;100.00;97674.88;5043567;28;20052;-59
2023/05/04 01:47:30;;;;;;;10.57;5.35;;;;;;;4.62;100.00;97680.66;5034557;28;20248;-59
2023/05/04 01:49:57;;;;;;;8.80;5.40;;;;;;;4.47;100.00;97675.50;5040513;28;20087;-58
2023/05/04 01:52:23;;;;;;;9.05;5.55;;;;;;;4.49;100.00;97681.50;5036961;28;20145;-58
2023/05/04 01:54:50;;;;;;;9.43;5.75;;;;;;;4.50;100.00;97675.91;5043060;28;20081;-58
2023/05/04 01:57:16;;;;;;;12.15;5.47;;;;;;;4.44;100.00;97674.06;5041598;28;20045;-58
2023/05/04 01:59:43;;;;;;;13.48;5.53;;;;;;;4.38;100.00;97681.06;5037030;28;20086;-59
2023/05/04 02:02:09;;;;;;;8.85;5.65;;;;;;;4.45;100.00;97677.56;5046584;28;20037;-59
2023/05/04 02:04:36;;;;;;;8.82;5.18;;;;;;;4.48;100.00;97667.25;5038055;28;20045;-58
2023/05/04 02:07:02;;;;;;;9.30;5.13;;;;;;;4.50;100.00;97667.84;5037862;28;20045;-58
2023/05/04 02:09:29;;;;;;;9.70;5.30;;;;;;;4.54;100.00;97662.94;5044355;28;20039;-59
2023/05/04 02:11:55;;;;;;;9.13;5.57;;;;;;;4.49;100.00;97666.22;5047635;28;20065;-59
2023/05/04 02:14:22;;;;;;;9.50;5.68;;;;;;;4.52;100.00;97668.50;5038677;28;20041;-59
2023/05/04 02:16:49;;;;;;;10.18;5.93;;;;;;;4.53;100.00;97670.13;5047263;28;20053;-60
2023/05/04 02:19:15;;;;;;;10.30;6.03;;;;;;;4.59;100.00;97670.34;5046586;28;20523;-60
2023/05/04 02:21:42;;;;;;;9.88;5.65;;;;;;;4.46;100.00;97674.66;5039070;28;20037;-59
2023/05/04 02:24:08;;;;;;;11.10;5.47;;;;;;;4.46;100.00;97666.63;5032798;28;20041;-59
2023/05/04 02:26:35;;;;;;;9.07;5.32;;;;;;;4.47;100.00;97668.28;5039821;28;20037;-58
2023/05/04 02:29:02;;;;;;;10.70;5.85;;;;;;;4.46;100.00;97668.50;5044840;28;20041;-58
2023/05/04 02:31:28;;;;;;;10.13;6.28;;;;;;;4.45;100.00;97673.00;5039115;28;20048;-58
2023/05/04 02:33:55;;;;;;;12.77;6.25;;;;;;;4.35;100.00;97667.25;5044674;28;20424;-59
2023/05/04 02:36:21;;;;;;;9.93;5.22;;;;;;;4.24;100.00;97672.16;5041385;28;20137;-59
2023/05/04 02:38:48;;;;;;;9.52;5.65;;;;;;;4.35;100.00;97667.25;5045673;28;20052;-59
2023/05/04 02:41:15;;;;;;;12.10;6.30;;;;;;;4.30;100.00;97665.16;5043473;28;20065;-59
2023/05/04 02:43:41;;;;;;;10.50;6.22;;;;;;;4.13;100.00;97668.22;5039148;28;20048;-59
2023/05/04 02:46:08;;;;;;;10.40;6.38;;;;;;;4.27;100.00;97668.25;5044340;28;20032;-59
2023/05/04 02:48:34;;;;;;;10.13;6.20;;;;;;;4.40;100.00;97664.75;5038225;28;20036;-59
2023/05/04 02:51:01;;;;;;;11.30;5.95;;;;;;;4.35;100.00;97668.03;5039164;28;20227;-60
2023/05/04 02:53:28;;;;;;;10.80;5.80;;;;;;;4.18;100.00;97666.78;5040840;28;20037;-58
2023/05/04 02:55:54;;;;;;;11.68;5.70;;;;;;;4.11;100.00;97672.97;5040529;28;20487;-59
2023/05/04 02:58:21;;;;;;;14.98;6.47;;;;;;;4.23;100.00;97667.84;5040593;28;20535;-58
2023/05/04 03:00:52;;;;;;;13.13;7.35;;;;;;;4.22;100.00;97668.03;5040407;28;20053;-60
2023/05/04 03:03:18;;;;;;;8.50;5.32;;;;;;;4.10;100.00;97674.00;5034445;28;20037;-58
2023/05/04 03:05:45;;;;;;;10.85;6.25;;;;;;;4.23;100.00;97669.69;5061649;28;20515;-57
2023/05/04 03:08:11;;;;;;;11.23;5.93;;;;;;;4.20;100.00;97678.16;5038499;28;20033;-59
2023/05/04 03:10:38;;;;;;;10.55;5.95;;;;;;;4.22;100.00;97676.06;5041305;28;20505;-58
2023/05/04 03:13:04;;;;;;;12.27;6.95;;;;;;;4.30;100.00;97681.25;5042561;28;20044;-59
2023/05/04 03:15:32;;;;;;;11.00;6.68;;;;;;;4.12;100.00;97674.63;5037260;28;20132;-59
2023/05/04 03:17:59;;;;;;;10.32;6.07;;;;;;;4.10;100.00;97675.84;5044948;28;20052;-59
2023/05/04 03:20:27;;;;;;;12.88;7.85;;;;;;;4.18;100.00;97672.16;5036408;28;20048;-59
2023/05/04 03:22:53;;;;;;;12.85;7.55;;;;;;;4.23;100.00;97670.50;5042820;28;20053;-56
2023/05/04 03:25:20;;;;;;;10.60;6.55;;;;;;;4.22;100.00;97671.56;5047629;28;20036;-59
2023/05/04 03:27:47;;;;;;;13.27;7.95;;;;;;;4.29;100.00;97669.72;5039125;28;20041;-60
2023/05/04 03:30:14;;;;;;;13.07;7.85;;;;;;;4.48;100.00;97666.41;5040513;28;20041;-58
2023/05/04 03:32:43;;;;;;;11.68;7.22;;;;;;;4.45;100.00;97658.81;5036104;28;20049;-59
2023/05/04 03:35:10;;;;;;;13.60;7.88;;;;;;;4.46;100.00;97661.25;5041472;28;20070;-58
2023/05/04 03:37:36;;;;;;;14.75;7.95;;;;;;;4.27;100.00;97665.56;5041045;28;20493;-59
2023/05/04 03:40:04;;;;;;;11.90;7.55;;;;;;;4.32;100.00;97660.44;5047448;28;20052;-57
2023/05/04 03:42:31;;;;;;;12.40;7.35;;;;;;;4.22;100.00;97657.31;5033860;28;20037;-58
2023/05/04 03:44:57;;;;;;;14.48;9.57;;;;;;;4.21;100.00;97661.03;5038283;28;20447;-58
2023/05/04 03:47:24;;;;;;;13.50;8.27;;;;;;;4.19;100.00;97657.72;5036875;28;20239;-59
2023/05/04 03:49:51;;;;;;;14.35;8.77;;;;;;;4.12;100.00;97652.34;5044622;28;20095;-59
2023/05/04 03:52:19;;;;;;;13.80;8.65;;;;;;;4.08;100.00;97659.13;5034989;28;20092;-58
2023/05/04 03:54:46;;;;;;;16.38;9.02;;;;;;;3.98;100.00;97660.34;5038318;28;20103;-59
2023/05/04 03:57:12;;;;;;;17.27;10.35;;;;;;;4.01;100.00;97654.59;5042162;28;20048;-59
2023/05/04 03:59:39;;;;;;;17.10;9.27;;;;;;;4.03;100.00;97659.75;5041657;28;20048;-60
2023/05/04 04:02:05;;;;;;;13.50;8.73;;;;;;;4.11;100.00;97659.56;5036188;28;20041;-59
2023/05/04 04:04:34;;;;;;;19.23;8.50;;;;;;;4.01;100.00;97648.41;5040209;28;20569;-60
2023/05/04 04:07:01;;;;;;;16.00;8.63;;;;;;;4.01;100.00;97651.09;5046173;28;20052;-58
2023/05/04 04:09:29;;;;;;;15.30;8.77;;;;;;;3.93;100.00;97652.09;5042041;28;20045;-60
2023/05/04 04:11:56;;;;;;;18.15;8.43;;;;;;;3.88;100.00;97651.88;5047385;28;20037;-61
2023/05/04 04:14:22;;;;;;;13.48;8.73;;;;;;;4.07;100.00;97644.94;5046443;28;20036;-59
2023/05/04 04:16:49;;;;;;;15.88;8.65;;;;;;;3.96;100.00;97645.50;5049135;28;20060;-59
2023/05/04 04:19:15;;;;;;;16.67;9.50;;;;;;;4.07;100.00;97638.72;5042140;28;20045;-59
2023/05/04 04:21:42;;;;;;;17.58;9.35;;;;;;;3.99;100.00;97637.91;5033689;28;20137;-59
2023/05/04 04:24:08;;;;;;;18.38;10.43;;;;;;;4.01;100.00;97635.84;5048375;28;20502;-59
2023/05/04 04:26:35;;;;;;;22.25;10.98;;;;;;;4.08;100.00;97643.88;5040714;28;20124;-59
2023/05/04 04:29:02;;;;;;;19.30;10.35;;;;;;;4.20;100.00;97638.75;5037511;28;20516;-58
2023/05/04 04:31:29;;;;;;;14.85;9.68;;;;;;;4.19;100.00;97634.41;5039799;28;20048;-59
2023/05/04 04:33:55;;;;;;;18.52;10.70;;;;;;;4.10;100.00;97632.97;5046051;28;20542;-59
2023/05/04 04:36:22;;;;;;;17.10;10.07;;;;;;;4.00;100.00;97638.72;5049615;28;20052;-59
2023/05/04 04:38:48;;;;;;;16.88;10.27;;;;;;;4.02;100.00;97634.81;5044739;28;20508;-60
2023/05/04 04:41:15;;;;;;;18.25;10.15;;;;;;;4.12;100.00;97639.78;5044362;28;20524;-59
2023/05/04 04:43:42;;;;;;;16.70;10.35;;;;;;;4.28;100.00;97641.22;5039946;28;20053;-59
2023/05/04 04:46:08;;;;;;;14.88;10.48;;;;;;;4.47;100.00;97640.63;5041720;28;20037;-59
2023/05/04 04:48:35;;;;;;;17.70;10.88;;;;;;;4.53;100.00;97637.13;5049783;28;20045;-59
2023/05/04 04:51:01;;;;;;;22.48;11.30;;;;;;;4.65;100.00;97632.78;5048477;28;20079;-59
2023/05/04 04:53:28;;;;;;;15.18;9.65;;;;;;;4.58;100.00;97633.81;5049588;28;20120;-59
2023/05/04 04:55:54;;;;;;;16.63;10.30;;;;;;;4.74;100.00;97637.94;5043471;28;20137;-59
2023/05/04 04:58:20;;;;;;;19.60;9.30;;;;;;;4.82;100.00;97632.38;5042520;28;20045;-58
2023/05/04 05:00:47;;;;;;;14.48;9.40;;;;;;;4.90;100.00;97629.47;5055861;28;20045;-59
2023/05/04 05:03:14;;;;;;;16.52;9.60;;;;;;;4.92;100.00;97632.78;5044260;28;20075;-59
2023/05/04 05:05:40;;;;;;;19.50;10.45;;;;;;;5.13;100.00;97630.06;5041575;28;20132;-59
2023/05/04 05:08:07;;;;;;;14.48;10.20;;;;;;;5.25;100.00;97628.38;5046812;28;20040;-60
2023/05/04 05:10:33;;;;;;;16.23;9.65;;;;;;;5.65;100.00;97621.19;5049174;28;20098;-60
2023/05/04 05:13:00;;;;;;;15.55;9.70;;;;;;;5.81;100.00;97626.06;5048494;28;20079;-60
2023/05/04 05:15:26;;;;;;;15.90;9.10;;;;;;;5.98;100.00;97622.88;5035036;28;20037;-60
2023/05/04 05:17:53;;;;;;;15.73;9.30;;;;;;;6.10;100.00;97629.25;5040591;28;20424;-60
2023/05/04 05:20:20;;;;;;;14.77;10.20;;;;;;;6.18;100.00;97621.94;5042692;28;20045;-59
2023/05/04 05:22:46;;;;;;;15.65;9.32;;;;;;;6.21;100.00;97629.59;5038811;28;20048;-59
2023/05/04 05:25:13;;;;;;;15.32;9.93;;;;;;;6.28;100.00;97629.53;5046609;28;20389;-60
2023/05/04 05:27:40;;;;;;;16.45;10.07;;;;;;;6.37;100.00;97633.59;5043846;28;20094;-60
2023/05/04 05:30:06;;;;;;;16.27;10.60;;;;;;;6.58;100.00;97628.91;5037709;28;20118;-60
2023/05/04 05:32:33;;;;;;;20.05;10.30;;;;;;;6.73;100.00;97634.78;5048385;28;20151;-59
2023/05/04 05:35:00;;;;;;;17.55;10.70;;;;;;;6.88;100.00;97639.81;5046196;28;20059;-59
2023/05/04 05:37:26;;;;;;;16.23;10.32;;;;;;;7.03;100.00;97639.47;5054168;28;20072;-60
2023/05/04 05:39:53;;;;;;;15.73;10.40;;;;;;;7.19;100.00;97644.50;5043673;28;20111;-60
2023/05/04 05:42:19;;;;;;;16.95;10.27;;;;;;;7.33;100.00;97640.59;5043799;28;20071;-60
2023/05/04 05:44:45;;;;;;;15.65;10.18;;;;;;;7.54;100.00;97642.03;5043487;28;20126;-60
2023/05/04 05:47:12;;;;;;;15.18;10.35;;;;;;;7.74;100.00;97632.88;5047553;28;20041;-60
2023/05/04 05:49:39;;;;;;;17.50;9.75;;;;;;;7.89;100.00;97631.66;5041471;28;20053;-58
2023/05/04 05:52:07;;;;;;;15.75;10.35;;;;;;;8.01;100.00;97639.78;5047381;28;20045;-59
2023/05/04 05:54:34;;;;;;;16.88;9.93;;;;;;;8.12;100.00;97638.19;5056440;28;20041;-60
2023/05/04 05:57:01;;;;;;;16.38;10.90;;;;;;;8.27;100.00;97637.75;5051828;28;20045;-60
2023/05/04 05:59:27;;;;;;;19.63;10.85;;;;;;;8.43;100.00;97637.09;5049531;28;20471;-58
2023/05/04 06:01:54;;;;;;;14.73;10.27;;;;;;;8.59;100.00;97627.53;5045487;28;20037;-60
2023/05/04 06:04:20;;;;;;;13.50;9.98;;;;;;;8.79;100.00;97628.25;5044352;28;20052;-59
2023/05/04 06:06:47;;;;;;;14.60;9.25;;;;;;;8.94;100.00;97630.50;5048768;28;20049;-59
2023/05/04 06:09:13;;;;;;;15.02;9.68;;;;;;;9.10;100.00;97627.09;5049222;28;20504;-60
2023/05/04 06:11:40;;;;;;;15.65;10.10;;;;;;;9.21;100.00;97621.88;5043071;28;20044;-61
2023/05/04 06:14:06;;;;;;;15.35;11.32;;;;;;;9.54;97.12;97620.44;5051427;28;20045;-59
2023/05/04 06:16:33;;;;;;;17.05;11.07;;;;;;;9.68;95.82;97622.84;5048776;28;20069;-60
2023/05/04 06:18:59;;;;;;;16.38;10.15;;;;;;;9.85;94.68;97623.72;5040315;28;20090;-59
2023/05/04 06:21:26;;;;;;;15.32;10.05;;;;;;;9.99;93.61;97620.75;5050942;28;20067;-60
2023/05/04 06:23:52;;;;;;;16.40;11.02;;;;;;;10.15;93.04;97619.94;5045991;28;20098;-59
2023/05/04 06:26:20;;;;;;;13.82;8.57;;;;;;;10.25;91.70;97622.03;5043817;28;20040;-61
2023/05/04 06:28:47;;;;;;;13.18;8.85;;;;;;;10.41;92.39;97628.56;5045028;28;20051;-60
2023/05/04 06:31:14;;;;;;;13.30;9.25;;;;;;;10.47;91.73;97626.75;5049698;28;20646;-60
2023/05/04 06:33:40;;;;;;;12.68;9.02;;;;;;;10.54;91.14;97629.31;5045417;28;20041;-58
2023/05/04 06:36:07;;;;;;;19.65;9.82;;;;;;;10.63;91.02;97627.84;5040409;28;20066;-60
2023/05/04 06:38:34;;;;;;;12.90;9.45;;;;;;;10.77;90.61;97622.09;5048606;28;20037;-59
2023/05/04 06:41:04;;;;;;;17.20;9.48;;;;;;;10.85;89.79;97623.56;5056635;28;20051;-60
2023/05/04 06:43:31;;;;;;;11.88;8.80;;;;;;;10.95;90.85;97622.91;5058920;28;20097;-60
2023/05/04 06:46:03;;;;;;;15.18;10.23;;;;;;;11.13;89.94;97622.63;5046081;28;20037;-60
2023/05/04 06:48:30;;;;;;;14.75;10.50;;;;;;;11.28;88.07;97622.00;5045256;28;20408;-59
2023/05/04 06:50:57;;;;;;;15.38;10.82;;;;;;;11.35;86.69;97624.53;5050302;28;20064;-59
2023/05/04 06:53:27;;;;;;;17.10;10.23;;;;;;;11.43;86.96;97617.88;5051277;28;20048;-60
2023/05/04 06:55:53;;;;;;;13.35;10.00;;;;;;;11.53;87.79;97626.13;5053028;28;20051;-60
2023/05/04 06:58:20;;;;;;;12.35;9.30;;;;;;;11.67;85.74;97614.91;5051412;28;20072;-60
2023/05/04 07:00:47;;;;;;;13.43;9.50;;;;;;;11.75;84.55;97619.06;5049242;28;20102;-60
2023/05/04 07:03:14;;;;;;;14.18;9.48;;;;;;;11.84;84.21;97623.78;5053152;28;20456;-59
2023/05/04 07:05:44;;;;;;;14.23;9.55;;;;;;;11.91;84.01;97623.56;5047070;28;20071;-60
2023/05/04 07:08:11;;;;;;;15.50;9.77;;;;;;;12.07;84.23;97615.66;5034790;28;20041;-60
2023/05/04 07:10:37;;;;;;;17.55;10.65;;;;;;;12.20;83.13;97622.56;5038794;28;20382;-59
2023/05/04 07:13:05;;;;;;;21.58;9.32;;;;;;;12.19;83.20;97613.59;5044194;28;20094;-60
2023/05/04 07:15:35;;;;;;;15.85;9.82;;;;;;;12.30;83.66;97616.41;5052594;28;20461;-59
2023/05/04 07:18:01;;;;;;;17.55;9.43;;;;;;;12.42;82.71;97621.69;5042337;28;20687;-60
2023/05/04 07:20:28;;;;;;;15.10;9.82;;;;;;;12.47;82.55;97616.28;5043593;28;20044;-59
2023/05/04 07:22:55;;;;;;;18.98;10.07;;;;;;;12.53;82.32;97623.41;5046497;28;20043;-59
2023/05/04 07:25:26;;;;;;;19.70;10.57;;;;;;;12.55;82.77;97628.56;5041459;28;20072;-58
2023/05/04 07:27:53;;;;;;;16.88;10.13;;;;;;;12.66;82.98;97627.59;5036183;28;20124;-56
2023/05/04 07:30:20;;;;;;;14.85;9.90;;;;;;;12.79;84.67;97617.38;5042777;28;20682;-57
2023/05/04 07:32:46;;;;;;;15.20;9.45;;;;;;;13.08;81.18;97620.53;5033549;28;20053;-57
2023/05/04 07:35:13;;;;;;;14.20;9.25;;;;;;;13.25;81.05;97623.09;5041947;28;20516;-59
2023/05/04 07:37:40;;;;;;;19.98;10.25;;;;;;;13.32;78.54;97616.59;5046884;28;20106;-58
2023/05/04 07:40:07;;;;;;;13.95;10.23;;;;;;;13.63;77.99;97612.16;5035994;28;20056;-58
2023/05/04 07:42:33;;;;;;;14.10;9.68;;;;;;;13.74;76.76;97617.63;5035193;28;20410;-58
2023/05/04 07:45:00;;;;;;;16.83;10.07;;;;;;;13.75;77.46;97616.56;5048618;28;20072;-58
2023/05/04 07:47:27;;;;;;;13.57;9.10;;;;;;;13.80;74.63;97613.84;5050680;28;20046;-54
2023/05/04 07:49:53;;;;;;;16.02;10.45;;;;;;;13.96;74.40;97622.88;5041193;28;20140;-58
2023/05/04 07:52:20;;;;;;;14.65;9.90;;;;;;;13.88;74.42;97616.06;5047494;28;20075;-52
2023/05/04 07:54:50;;;;;;;13.63;9.10;;;;;;;13.98;73.75;97614.44;5046417;28;20033;-54
2023/05/04 07:57:16;;;;;;;14.13;9.23;;;;;;;14.28;71.40;97610.16;5040535;28;20106;-56
2023/05/04 07:59:43;;;;;;;16.98;9.23;;;;;;;14.35;71.85;97607.16;5045381;28;20057;-57
2023/05/04 08:02:09;;;;;;;11.27;8.98;;;;;;;14.24;71.57;97606.31;5040480;28;21010;-54
2023/05/04 08:04:36;;;;;;;16.13;9.63;;;;;;;14.16;72.36;97607.69;5043856;28;20040;-58
2023/05/04 08:07:02;;;;;;;13.52;9.35;;;;;;;14.19;70.89;97607.13;5036919;28;20052;-58
2023/05/04 08:09:29;;;;;;;11.65;8.70;;;;;;;14.34;70.68;97605.53;5033255;28;20041;-58
2023/05/04 08:11:55;;;;;;;16.10;9.57;;;;;;;14.46;70.14;97600.63;5044658;28;20049;-57
2023/05/04 08:14:22;;;;;;;14.20;9.70;;;;;;;14.50;70.44;97596.28;5041771;28;20103;-57
2023/05/04 08:16:48;;;;;;;17.45;9.30;;;;;;;14.79;68.88;97603.09;5044225;28;20126;-56
2023/05/04 08:19:15;;;;;;;15.32;9.23;;;;;;;14.62;68.63;97595.16;5030083;28;20150;-56
2023/05/04 08:21:41;;;;;;;13.15;8.15;;;;;;;14.70;68.61;97595.44;5035238;28;20123;-55
2023/05/04 08:24:08;;;;;;;14.23;8.38;;;;;;;14.79;68.07;97597.66;5046907;28;20048;-54
2023/05/04 08:26:37;;;;;;;11.98;8.77;;;;;;;14.65;68.33;97586.44;5042127;28;20048;-58
2023/05/04 08:29:12;;;;;;;14.23;7.43;;;;;;;14.83;68.31;97594.09;5044156;28;20072;-55
2023/05/04 08:31:39;;;;;;;10.05;7.93;;;;;;;15.06;67.22;97582.88;5046405;28;20129;-57
2023/05/04 08:34:06;;;;;;;13.90;8.25;;;;;;;15.04;67.38;97585.09;5047342;28;20037;-58
2023/05/04 08:36:33;;;;;;;12.00;7.43;;;;;;;15.30;66.04;97591.28;5041534;28;20064;-57
2023/05/04 08:38:59;;;;;;;10.07;7.82;;;;;;;15.43;66.41;97587.16;5041276;28;20048;-56
2023/05/04 08:41:26;;;;;;;11.00;7.72;;;;;;;15.60;64.22;97586.78;5042468;28;20142;-57
2023/05/04 08:43:52;;;;;;;10.35;6.95;;;;;;;15.71;64.70;97587.56;5045247;28;20462;-56
2023/05/04 08:46:19;;;;;;;10.25;7.55;;;;;;;15.79;62.91;97585.34;5045960;28;20531;-57
2023/05/04 08:48:46;;;;;;;12.38;7.05;;;;;;;15.73;62.35;97579.09;5047218;28;20044;-56
2023/05/04 08:51:13;;;;;;;10.98;7.15;;;;;;;15.81;61.77;97578.50;5043325;28;20079;-56
2023/05/04 08:53:44;;;;;;;11.32;6.80;;;;;;;15.76;61.52;97575.81;5040541;28;20037;-57
2023/05/04 08:56:12;;;;;;;9.98;6.53;;;;;;;15.77;61.73;97577.44;5039498;28;20054;-55
2023/05/04 08:59:00;;;;;;;11.35;6.95;;;;;;;15.85;61.28;97574.13;5034874;28;20485;-59
2023/05/04 09:01:29;;;;;;;9.55;6.70;;;;;;;15.86;61.62;97574.94;5042524;28;20044;-59
2023/05/04 09:03:59;;;;;;;9.65;7.22;;;;;;;15.81;60.14;97567.59;5044457;28;20064;-58
2023/05/04 09:06:26;;;;;;;11.45;7.25;;;;;;;15.95;61.16;97567.81;5040910;28;20124;-59
2023/05/04 09:08:52;;;;;;;9.35;7.18;;;;;;;16.02;59.80;97563.94;5044222;28;20044;-57
2023/05/04 09:11:21;;;;;;;10.27;6.63;;;;;;;16.12;59.64;97555.69;5048863;28;20059;-58
2023/05/04 09:13:47;;;;;;;12.73;7.32;;;;;;;16.16;59.33;97551.31;5044176;28;20041;-59
2023/05/04 09:16:15;;;;;;;9.63;6.43;;;;;;;16.36;57.97;97552.22;5045703;28;20055;-57
2023/05/04 09:18:43;;;;;;;10.95;6.95;;;;;;;16.40;57.00;97553.28;5042556;28;20095;-59
2023/05/04 09:21:10;;;;;;;9.82;6.60;;;;;;;16.36;56.10;97550.31;5037162;28;20044;-58
2023/05/04 09:23:48;;;;;;;10.13;6.05;;;;;;;16.42;56.39;97550.28;5045786;28;20055;-59
2023/05/04 09:26:28;;;;;;;8.75;5.88;;;;;;;16.57;55.99;97547.41;5037481;28;20608;-57
2023/05/04 09:28:55;;;;;;;9.52;5.88;;;;;;;16.69;55.97;97547.03;5037534;28;20491;-60
2023/05/04 09:31:22;;;;;;;8.10;5.30;;;;;;;16.84;55.84;97548.00;5038826;28;20048;-60
2023/05/04 09:33:49;;;;;;;8.05;5.15;;;;;;;16.87;54.86;97544.66;5040291;28;20045;-60
2023/05/04 09:36:20;;;;;;;10.45;5.50;;;;;;;16.99;54.80;97547.81;5040247;28;20662;-61
2023/05/04 09:38:47;;;;;;;8.95;4.82;;;;;;;17.10;53.95;97539.56;5038473;28;20436;-60
2023/05/04 09:41:14;;;;;;;6.97;5.10;;;;;;;17.23;53.83;97540.75;5039838;28;20044;-60
2023/05/04 09:43:42;;;;;;;8.23;4.47;;;;;;;17.33;53.37;97548.03;5042212;28;20132;-60
2023/05/04 09:46:17;;;;;;;15.05;5.78;;;;;;;17.34;52.26;97544.19;5038204;28;20040;-60
2023/05/04 09:48:51;;;;;;;7.35;4.60;;;;;;;17.28;52.47;97543.44;5042570;28;20045;-61
2023/05/04 09:51:21;;;;;;;7.70;3.70;;;;;;;17.46;49.39;97552.81;5045214;28;20048;-61
2023/05/04 09:53:49;;;;;;;6.10;3.50;;;;;;;17.57;46.58;97553.50;5046980;28;20048;-60
2023/05/04 09:56:27;;;;;;;6.75;3.83;;;;;;;17.67;46.98;97556.09;5044463;28;20059;-59
2023/05/04 09:58:58;;;;;;;6.18;3.58;;;;;;;17.84;48.28;97551.22;5050965;28;20729;-61
2023/05/04 10:01:27;;;;;;;6.95;3.53;;;;;;;17.82;44.51;97546.03;5043319;28;20049;-59
2023/05/04 10:03:54;;;;;;;5.30;3.35;;;;;;;17.91;47.09;97543.47;5044784;28;20048;-61
2023/05/04 10:06:22;;;;;;;4.40;2.95;;;;;;;18.10;46.90;97548.16;5046178;28;20124;-60
2023/05/04 10:08:50;;;;;;;7.57;3.20;;;;;;;18.28;45.22;97539.09;5044247;28;20123;-61
2023/05/04 10:11:18;;;;;;;7.18;3.30;;;;;;;18.16;43.62;97536.81;5041347;28;20045;-61
2023/05/04 10:13:46;;;;;;;6.60;3.92;;;;;;;18.21;43.91;97530.44;5047543;28;20427;-60
2023/05/04 10:17:00;;;;;;;5.30;3.25;;;;;;;18.38;44.39;97534.53;5047766;28;20045;-61
2023/05/04 10:19:41;;;;;;;6.03;3.50;;;;;;;18.45;43.06;97527.59;5042130;28;20037;-60
2023/05/04 10:22:22;;;;;;;5.40;3.65;;;;;;;18.44;44.50;97527.88;5054584;28;20101;-60
2023/05/04 10:25:07;;;;;;;5.32;3.53;;;;;;;18.56;44.78;97517.25;5035924;28;20116;-60
2023/05/04 10:27:45;;;;;;;6.18;3.30;;;;;;;18.72;43.54;97520.53;5041438;28;21417;-61
2023/05/04 10:30:14;;;;;;;5.05;3.40;;;;;;;18.93;43.15;97524.81;5047419;28;20108;-60
2023/05/04 10:32:41;;;;;;;4.93;3.00;;;;;;;18.90;42.90;97515.25;5044803;28;20707;-61
2023/05/04 10:35:08;;;;;;;4.53;2.88;;;;;;;19.03;42.55;97518.31;5040600;28;20415;-62
2023/05/04 10:37:39;;;;;;;7.07;3.75;;;;;;;18.83;41.18;97506.63;5032771;28;20041;-61
2023/05/04 10:40:07;;;;;;;6.53;3.88;;;;;;;18.88;42.58;97501.06;5045539;28;20058;-59
2023/05/04 10:42:41;;;;;;;5.00;2.92;;;;;;;19.09;41.98;97503.44;5047379;28;20052;-61
2023/05/04 10:45:09;;;;;;;5.10;3.00;;;;;;;19.16;42.20;97490.09;5042162;28;20630;-61
2023/05/04 10:47:38;;;;;;;4.72;2.95;;;;;;;19.35;42.84;97497.41;5045544;28;20065;-60
2023/05/04 10:50:06;;;;;;;5.50;3.17;;;;;;;19.45;42.54;97493.63;5041461;28;20048;-60
2023/05/04 10:52:46;;;;;;;6.30;3.20;;;;;;;19.54;42.43;97486.31;5050159;28;20548;-61
2023/05/04 10:55:13;;;;;;;4.97;3.15;;;;;;;19.61;43.02;97481.19;5040278;28;20040;-60
2023/05/04 10:57:52;;;;;;;4.57;3.15;;;;;;;19.57;41.81;97479.38;5040031;28;20041;-61
2023/05/04 11:00:19;;;;;;;5.68;3.17;;;;;;;19.35;40.38;97481.75;5037572;28;20160;-62
2023/05/04 11:02:47;;;;;;;4.50;2.85;;;;;;;19.45;41.73;97480.72;5046996;28;20080;-62
2023/05/04 11:05:18;;;;;;;4.45;2.83;;;;;;;19.48;41.87;97476.53;5054609;28;20086;-62
2023/05/04 11:07:49;;;;;;;5.38;3.20;;;;;;;19.60;41.04;97470.50;5049808;28;20558;-62
2023/05/04 11:10:24;;;;;;;5.60;3.25;;;;;;;19.71;41.25;97460.09;5049571;28;20116;-62
2023/05/04 11:12:50;;;;;;;3.83;2.60;;;;;;;19.77;40.46;97461.63;5044229;28;20103;-62
2023/05/04 11:15:18;;;;;;;5.10;3.50;;;;;;;19.78;40.37;97455.00;5045424;28;20041;-61
2023/05/04 11:17:48;;;;;;;4.30;2.63;;;;;;;19.99;40.42;97447.13;5044707;28;20056;-61
2023/05/04 11:20:20;;;;;;;5.97;3.20;;;;;;;20.21;40.27;97450.16;5045455;28;20045;-61
2023/05/04 11:22:48;;;;;;;8.90;3.63;;;;;;;20.21;39.96;97450.16;5051264;28;20036;-61
2023/05/04 11:25:15;;;;;;;10.52;3.42;;;;;;;20.37;40.64;97458.81;5034547;28;20751;-57
2023/05/04 11:27:43;;;;;;;4.60;3.45;;;;;;;20.28;38.89;97451.31;5038658;28;20049;-60
2023/05/04 11:30:10;;;;;;;5.88;3.92;;;;;;;20.17;39.00;97447.22;5050434;28;20045;-61